createdAt,value
2023-03-26T00:02:04.532Z,3.10
2023-03-26T00:04:33.636Z,2.40
2023-03-26T00:07:01.830Z,1.77
2023-03-26T00:09:30.487Z,1.50
2023-03-26T00:11:59.702Z,1.60
2023-03-26T00:14:29.278Z,1.63
2023-03-26T00:16:57.094Z,1.80
2023-03-26T00:19:25.338Z,1.80
2023-03-26T00:21:53.280Z,1.60
2023-03-26T00:24:21.547Z,2.10
2023-03-26T00:26:53.325Z,1.30
2023-03-26T00:29:24.642Z,1.40
2023-03-26T00:31:52.471Z,1.70
2023-03-26T00:34:20.776Z,5.45
2023-03-26T00:36:54.266Z,28.70
2023-03-26T00:39:24.042Z,25.40
2023-03-26T00:41:54.373Z,11.37
2023-03-26T00:44:24.202Z,31.77
2023-03-26T00:46:52.640Z,4.82
2023-03-26T00:49:20.571Z,3.35
2023-03-26T00:51:48.407Z,2.55
2023-03-26T00:54:16.562Z,1.70
2023-03-26T00:56:44.442Z,2.20
2023-03-26T00:59:12.405Z,1.70
2023-03-26T01:01:41.848Z,1.55
2023-03-26T01:04:28.196Z,1.55
2023-03-26T01:06:59.605Z,1.57
2023-03-26T01:09:35.223Z,1.40
2023-03-26T01:12:06.727Z,1.60
2023-03-26T01:14:34.749Z,1.48
2023-03-26T01:17:06.873Z,1.52
2023-03-26T01:19:40.733Z,1.57
2023-03-26T01:22:11.919Z,1.80
2023-03-26T01:24:42.206Z,2.10
2023-03-26T01:27:24.374Z,1.85
2023-03-26T01:29:55.579Z,1.60
2023-03-26T01:32:33.542Z,2.00
2023-03-26T01:35:20.942Z,1.90
2023-03-26T01:37:59.747Z,1.80
2023-03-26T01:40:42.554Z,1.20
2023-03-26T01:43:14.946Z,1.40
2023-03-26T01:45:45.731Z,1.73
2023-03-26T01:48:14.333Z,1.55
2023-03-26T01:50:42.508Z,1.67
2023-03-26T01:53:12.055Z,1.70
2023-03-26T01:55:54.005Z,1.30
2023-03-26T01:58:30.231Z,1.60
2023-03-26T02:01:07.917Z,1.42
2023-03-26T02:03:43.139Z,1.65
2023-03-26T02:06:17.845Z,1.52
2023-03-26T02:08:50.965Z,1.60
2023-03-26T02:11:21.609Z,1.73
2023-03-26T02:13:51.960Z,1.83
2023-03-26T02:16:21.787Z,1.77
2023-03-26T02:18:55.686Z,1.60
2023-03-26T02:21:26.063Z,1.50
2023-03-26T02:23:57.961Z,1.20
2023-03-26T02:26:27.606Z,1.70
2023-03-26T02:29:06.401Z,1.95
2023-03-26T02:31:36.802Z,1.50
2023-03-26T02:34:04.901Z,1.30
2023-03-26T02:36:36.160Z,1.30
2023-03-26T02:39:05.925Z,1.50
2023-03-26T02:41:39.589Z,1.48
2023-03-26T02:44:10.706Z,1.50
2023-03-26T02:47:01.683Z,1.40
2023-03-26T02:49:47.961Z,1.00
2023-03-26T02:52:24.184Z,1.60
2023-03-26T02:54:54.507Z,1.27
2023-03-26T02:57:26.612Z,1.20
2023-03-26T03:00:13.135Z,1.88
2023-03-26T03:02:48.089Z,1.30
2023-03-26T03:05:32.201Z,1.70
2023-03-26T03:08:18.213Z,1.63
2023-03-26T03:11:22.074Z,1.25
2023-03-26T03:13:53.130Z,1.88
2023-03-26T03:16:32.294Z,1.60
2023-03-26T03:19:09.339Z,2.03
2023-03-26T03:21:39.097Z,1.52
2023-03-26T03:24:08.526Z,1.60
2023-03-26T03:26:42.227Z,1.50
2023-03-26T03:29:32.742Z,1.73
2023-03-26T03:32:16.680Z,1.70
2023-03-26T03:34:49.849Z,1.75
2023-03-26T03:37:18.062Z,1.50
2023-03-26T03:39:52.346Z,1.52
2023-03-26T03:42:22.612Z,1.60
2023-03-26T03:44:54.661Z,1.52
2023-03-26T03:47:41.295Z,1.80
2023-03-26T03:50:11.820Z,2.00
2023-03-26T03:52:48.624Z,1.63
2023-03-26T03:55:18.313Z,1.63
2023-03-26T03:57:51.541Z,1.35
2023-03-26T04:00:24.271Z,1.40
2023-03-26T04:03:14.238Z,1.60
2023-03-26T04:05:43.754Z,2.10
2023-03-26T04:08:11.940Z,2.33
2023-03-26T04:10:46.580Z,2.08
2023-03-26T04:13:17.310Z,2.10
2023-03-26T04:16:07.262Z,1.63
2023-03-26T04:18:36.697Z,1.88
2023-03-26T04:21:12.542Z,1.83
2023-03-26T04:23:42.325Z,2.80
2023-03-26T04:26:21.454Z,2.20
2023-03-26T04:29:07.306Z,1.95
2023-03-26T04:31:38.287Z,2.38
2023-03-26T04:34:13.540Z,1.90
2023-03-26T04:36:54.672Z,2.00
2023-03-26T04:39:29.027Z,1.80
2023-03-26T04:42:22.669Z,1.70
2023-03-26T04:45:03.163Z,1.50
2023-03-26T04:47:36.776Z,2.73
2023-03-26T04:50:06.565Z,1.73
2023-03-26T04:52:36.793Z,2.22
2023-03-26T04:55:34.199Z,1.98
2023-03-26T04:58:09.421Z,1.90
2023-03-26T05:01:10.535Z,2.10
2023-03-26T05:03:45.789Z,1.77
2023-03-26T05:06:17.678Z,1.98
2023-03-26T05:08:45.720Z,1.70
2023-03-26T05:11:23.336Z,1.92
2023-03-26T05:13:51.284Z,2.10
2023-03-26T05:16:19.632Z,2.28
2023-03-26T05:18:54.089Z,1.92
2023-03-26T05:21:23.489Z,2.47
2023-03-26T05:23:51.424Z,2.17
2023-03-26T05:26:20.761Z,2.40
2023-03-26T05:28:49.101Z,2.03
2023-03-26T05:31:35.446Z,2.45
2023-03-26T05:34:06.751Z,2.15
2023-03-26T05:36:34.857Z,1.92
2023-03-26T05:39:26.872Z,1.90
2023-03-26T05:42:20.731Z,1.92
2023-03-26T05:45:03.658Z,2.03
2023-03-26T05:47:34.419Z,1.77
2023-03-26T05:50:04.160Z,2.20
2023-03-26T05:52:32.053Z,2.17
2023-03-26T05:55:35.182Z,2.00
2023-03-26T05:58:21.776Z,1.85
2023-03-26T06:00:49.934Z,2.08
2023-03-26T06:03:31.125Z,1.95
2023-03-26T06:06:16.159Z,1.90
2023-03-26T06:09:02.382Z,2.10
2023-03-26T06:11:32.476Z,1.92
2023-03-26T06:14:02.220Z,1.83
2023-03-26T06:16:30.564Z,1.95
2023-03-26T06:19:10.779Z,2.17
2023-03-26T06:21:52.473Z,1.73
2023-03-26T06:24:23.814Z,1.92
2023-03-26T06:27:03.347Z,1.75
2023-03-26T06:30:02.986Z,2.30
2023-03-26T06:32:39.594Z,1.90
2023-03-26T06:35:11.764Z,1.70
2023-03-26T06:37:41.852Z,2.13
2023-03-26T06:40:11.184Z,2.03
2023-03-26T06:43:09.409Z,2.15
2023-03-26T06:46:13.937Z,2.03
2023-03-26T06:48:56.943Z,2.20
2023-03-26T06:51:43.702Z,1.75
2023-03-26T06:54:48.452Z,2.53
2023-03-26T06:57:34.848Z,1.83
2023-03-26T07:00:15.848Z,2.00
2023-03-26T07:03:22.385Z,2.10
2023-03-26T07:06:19.567Z,1.98
2023-03-26T07:09:06.022Z,1.77
2023-03-26T07:12:01.289Z,1.50
2023-03-26T07:14:48.133Z,1.70
2023-03-26T07:17:25.243Z,2.03
2023-03-26T07:20:08.276Z,2.58
2023-03-26T07:22:37.256Z,2.05
2023-03-26T07:25:06.568Z,1.60
2023-03-26T07:28:00.028Z,2.33
2023-03-26T07:30:51.853Z,2.00
2023-03-26T07:33:33.523Z,2.63
2023-03-26T07:36:28.673Z,1.35
2023-03-26T07:39:23.189Z,2.03
2023-03-26T07:42:20.192Z,1.63
2023-03-26T07:45:20.647Z,2.20
2023-03-26T07:48:25.361Z,1.65
2023-03-26T07:51:19.628Z,2.08
2023-03-26T07:54:04.127Z,2.00
2023-03-26T07:57:07.391Z,1.67
2023-03-26T07:59:39.488Z,1.63
2023-03-26T08:03:13.272Z,2.00
2023-03-26T08:06:08.665Z,2.42
2023-03-26T08:09:00.299Z,1.83
2023-03-26T08:11:59.633Z,1.53
2023-03-26T08:14:48.885Z,1.70
2023-03-26T08:17:22.569Z,1.85
2023-03-26T08:20:11.000Z,1.30
2023-03-26T08:22:42.717Z,1.30
2023-03-26T08:25:29.568Z,1.70
2023-03-26T08:28:10.702Z,1.27
2023-03-26T08:30:38.838Z,2.00
2023-03-26T08:33:16.780Z,1.60
2023-03-26T08:35:46.498Z,1.55
2023-03-26T08:38:19.565Z,2.20
2023-03-26T08:41:25.109Z,1.73
2023-03-26T08:44:32.185Z,1.67
2023-03-26T08:47:37.150Z,1.85
2023-03-26T08:50:38.994Z,1.63
2023-03-26T08:53:40.821Z,1.40
2023-03-26T08:56:21.546Z,1.70
2023-03-26T08:59:39.040Z,1.60
2023-03-26T09:02:32.263Z,1.50
2023-03-26T09:05:27.270Z,1.55
2023-03-26T09:08:36.988Z,1.23
2023-03-26T09:11:40.504Z,1.83
2023-03-26T09:14:55.163Z,2.00
2023-03-26T09:17:52.197Z,1.55
2023-03-26T09:21:06.431Z,1.42
2023-03-26T09:23:53.772Z,1.23
2023-03-26T09:26:40.983Z,1.83
2023-03-26T09:29:51.160Z,1.48
2023-03-26T09:32:41.023Z,1.90
2023-03-26T09:35:14.753Z,1.35
2023-03-26T09:37:58.302Z,1.63
2023-03-26T09:40:38.738Z,1.48
2023-03-26T09:43:34.637Z,2.17
2023-03-26T09:46:15.833Z,1.52
2023-03-26T09:49:02.966Z,1.65
2023-03-26T09:51:52.756Z,2.03
2023-03-26T09:54:54.171Z,1.30
2023-03-26T09:57:51.258Z,1.75
2023-03-26T10:00:27.307Z,1.60
2023-03-26T10:03:17.864Z,1.60
2023-03-26T10:05:58.067Z,1.57
2023-03-26T10:08:41.335Z,1.80
2023-03-26T10:11:18.755Z,2.00
2023-03-26T10:13:59.186Z,1.50
2023-03-26T10:16:40.416Z,1.70
2023-03-26T10:19:36.959Z,1.80
2023-03-26T10:22:15.895Z,1.63
2023-03-26T10:25:01.818Z,1.58
2023-03-26T10:27:42.152Z,2.28
2023-03-26T10:30:35.016Z,1.98
2023-03-26T10:33:14.916Z,1.70
2023-03-26T10:35:53.891Z,1.40
2023-03-26T10:38:29.967Z,1.40
2023-03-26T10:41:05.948Z,2.13
2023-03-26T10:44:08.116Z,1.33
2023-03-26T10:47:01.181Z,1.50
2023-03-26T10:49:56.014Z,1.40
2023-03-26T10:52:25.892Z,1.70
2023-03-26T10:54:57.234Z,1.85
2023-03-26T10:57:36.915Z,1.30
2023-03-26T11:00:17.311Z,1.40
2023-03-26T11:02:55.564Z,1.63
2023-03-26T11:05:47.469Z,1.67
2023-03-26T11:08:20.970Z,1.75
2023-03-26T11:11:06.392Z,1.52
2023-03-26T11:13:48.657Z,1.07
2023-03-26T11:16:23.491Z,1.45
2023-03-26T11:18:56.616Z,1.42
2023-03-26T11:21:31.228Z,1.33
2023-03-26T11:24:27.006Z,1.42
2023-03-26T11:26:57.338Z,1.00
2023-03-26T11:29:50.958Z,1.23
2023-03-26T11:32:23.331Z,1.23
2023-03-26T11:34:59.769Z,1.90
2023-03-26T11:37:34.718Z,1.05
2023-03-26T11:40:09.120Z,1.30
2023-03-26T11:42:37.237Z,1.27
2023-03-26T11:45:09.477Z,1.20
2023-03-26T11:47:44.691Z,1.60
2023-03-26T11:50:19.489Z,0.95
2023-03-26T11:52:48.962Z,1.20
2023-03-26T11:55:16.841Z,1.02
2023-03-26T11:57:50.306Z,1.50
2023-03-26T12:00:21.291Z,1.15
2023-03-26T12:02:49.872Z,1.40
2023-03-26T12:05:20.661Z,0.90
2023-03-26T12:07:54.523Z,1.00
2023-03-26T12:10:32.075Z,1.10
2023-03-26T12:13:02.346Z,1.25
2023-03-26T12:15:32.052Z,0.93
2023-03-26T12:18:18.425Z,1.80
2023-03-26T12:20:46.427Z,1.10
2023-03-26T12:23:44.228Z,0.93
2023-03-26T12:26:16.263Z,1.05
2023-03-26T12:28:48.760Z,1.00
2023-03-26T12:31:19.434Z,0.90
2023-03-26T12:34:05.009Z,0.93
2023-03-26T12:36:35.854Z,1.20
2023-03-26T12:40:07.672Z,1.40
2023-03-26T12:44:46.870Z,0.93
2023-03-26T12:45:15.863Z,1.60
2023-03-26T12:47:57.722Z,1.05
2023-03-26T12:50:41.486Z,1.05
2023-03-26T12:53:32.985Z,0.80
2023-03-26T12:56:13.385Z,1.13
2023-03-26T12:58:56.075Z,0.70
2023-03-26T13:01:35.837Z,0.93
2023-03-26T13:04:30.543Z,1.30
2023-03-26T13:07:02.791Z,1.30
2023-03-26T13:09:41.797Z,1.48
2023-03-26T13:12:19.549Z,0.83
2023-03-26T13:15:03.468Z,1.10
2023-03-26T13:17:39.558Z,0.98
2023-03-26T13:20:12.745Z,0.88
2023-03-26T13:22:49.775Z,1.20
2023-03-26T13:25:29.568Z,1.00
2023-03-26T13:28:11.190Z,0.82
2023-03-26T13:30:45.825Z,1.98
2023-03-26T13:33:39.505Z,1.20
2023-03-26T13:36:22.615Z,1.33
2023-03-26T13:39:11.230Z,1.30
2023-03-26T13:41:51.068Z,1.08
2023-03-26T13:44:31.095Z,1.27
2023-03-26T13:47:04.722Z,1.20
2023-03-26T13:49:38.647Z,1.20
2023-03-26T13:52:11.578Z,1.10
2023-03-26T13:54:45.408Z,1.13
2023-03-26T13:57:19.105Z,1.02
2023-03-26T13:59:54.048Z,1.25
2023-03-26T14:02:27.900Z,1.02
2023-03-26T14:05:01.214Z,1.43
2023-03-26T14:07:35.086Z,0.88
2023-03-26T14:10:07.908Z,0.90
2023-03-26T14:12:49.279Z,1.23
2023-03-26T14:15:25.725Z,1.10
2023-03-26T14:18:02.748Z,1.60
2023-03-26T14:20:52.243Z,0.93
2023-03-26T14:23:45.092Z,1.00
2023-03-26T14:26:23.572Z,0.98
2023-03-26T14:29:19.750Z,1.13
2023-03-26T14:32:00.819Z,1.50
2023-03-26T14:34:43.094Z,1.23
2023-03-26T14:37:30.043Z,0.80
2023-03-26T14:40:22.098Z,0.80
2023-03-26T14:42:57.668Z,0.88
2023-03-26T14:45:51.169Z,1.07
2023-03-26T14:48:50.325Z,0.88
2023-03-26T14:51:29.915Z,0.93
2023-03-26T14:54:01.521Z,1.00
2023-03-26T14:56:44.569Z,0.80
2023-03-26T14:59:45.741Z,0.90
2023-03-26T15:02:47.275Z,1.15
2023-03-26T15:06:02.969Z,0.90
2023-03-26T15:09:03.442Z,0.90
2023-03-26T15:11:35.383Z,0.70
2023-03-26T15:14:35.332Z,0.80
2023-03-26T15:17:36.732Z,0.90
2023-03-26T15:20:44.560Z,1.02
2023-03-26T15:23:56.863Z,1.55
2023-03-26T15:27:01.110Z,0.55
2023-03-26T15:29:59.638Z,1.23
2023-03-26T15:33:08.742Z,0.63
2023-03-26T15:36:14.831Z,0.70
2023-03-26T15:39:09.390Z,0.82
2023-03-26T15:41:44.379Z,0.90
2023-03-26T15:44:32.999Z,0.60
2023-03-26T15:47:35.030Z,0.80
2023-03-26T15:50:16.604Z,0.77
2023-03-26T15:52:49.357Z,0.77
2023-03-26T15:55:28.531Z,1.33
2023-03-26T15:58:02.420Z,0.97
2023-03-26T16:00:35.589Z,0.60
2023-03-26T16:03:27.347Z,1.00
2023-03-26T16:06:15.759Z,0.90
2023-03-26T16:08:56.015Z,0.75
2023-03-26T16:12:00.419Z,0.70
2023-03-26T16:14:44.291Z,0.80
2023-03-26T16:17:18.530Z,0.70
2023-03-26T16:19:52.983Z,1.20
2023-03-26T16:22:42.376Z,0.80
2023-03-26T16:25:27.660Z,0.77
2023-03-26T16:28:28.023Z,0.77
2023-03-26T16:31:38.343Z,0.85
2023-03-26T16:34:43.357Z,0.70
2023-03-26T16:37:37.039Z,0.80
2023-03-26T16:40:33.950Z,0.90
2023-03-26T16:43:13.594Z,1.00
2023-03-26T16:45:50.198Z,0.80
2023-03-26T16:48:26.863Z,1.00
2023-03-26T16:51:04.568Z,0.95
2023-03-26T16:53:42.677Z,1.20
2023-03-26T16:56:17.863Z,0.70
2023-03-26T16:58:55.915Z,1.00
2023-03-26T17:01:35.144Z,1.13
2023-03-26T17:04:07.671Z,1.20
2023-03-26T17:07:02.007Z,1.00
2023-03-26T17:09:38.946Z,0.90
2023-03-26T17:12:15.231Z,0.90
2023-03-26T17:15:05.535Z,1.02
2023-03-26T17:17:47.500Z,1.05
2023-03-26T17:20:26.557Z,1.30
2023-03-26T17:23:05.631Z,1.38
2023-03-26T17:25:45.319Z,0.80
2023-03-26T17:28:43.619Z,0.75
2023-03-26T17:31:19.434Z,1.10
2023-03-26T17:33:47.902Z,0.70
2023-03-26T17:36:29.027Z,1.25
2023-03-26T17:39:21.466Z,1.30
2023-03-26T17:42:04.290Z,0.98
2023-03-26T17:44:43.198Z,1.02
2023-03-26T17:47:20.693Z,0.67
2023-03-26T17:49:52.493Z,0.73
2023-03-26T17:52:25.361Z,0.70
2023-03-26T17:54:56.940Z,0.75
2023-03-26T17:57:32.890Z,0.70
2023-03-26T18:00:01.713Z,0.80
2023-03-26T18:02:43.332Z,1.30
2023-03-26T18:05:14.537Z,0.80
2023-03-26T18:08:13.600Z,0.85
2023-03-26T18:11:02.720Z,0.75
2023-03-26T18:13:56.179Z,0.80
2023-03-26T18:16:27.410Z,0.80
2023-03-26T18:18:59.757Z,0.90
2023-03-26T18:21:32.869Z,0.85
2023-03-26T18:24:01.887Z,0.98
2023-03-26T18:26:38.328Z,1.10
2023-03-26T18:29:22.133Z,0.93
2023-03-26T18:31:54.505Z,0.85
2023-03-26T18:34:24.346Z,0.68
2023-03-26T18:37:04.650Z,0.70
2023-03-26T18:39:32.800Z,0.77
2023-03-26T18:42:02.335Z,0.63
2023-03-26T18:44:30.985Z,0.80
2023-03-26T18:46:58.871Z,0.93
2023-03-26T18:49:29.681Z,0.90
2023-03-26T18:51:57.888Z,0.90
2023-03-26T18:54:29.104Z,0.70
2023-03-26T18:56:58.898Z,0.98
2023-03-26T18:59:31.814Z,1.38
2023-03-26T19:02:04.309Z,0.85
2023-03-26T19:04:34.917Z,0.80
2023-03-26T19:07:04.254Z,0.70
2023-03-26T19:09:32.695Z,1.23
2023-03-26T19:12:07.709Z,1.23
2023-03-26T19:14:52.208Z,0.90
2023-03-26T19:17:20.042Z,0.83
2023-03-26T19:19:48.102Z,0.80
2023-03-26T19:22:17.892Z,1.00
2023-03-26T19:24:46.325Z,1.35
2023-03-26T19:27:14.235Z,1.00
2023-03-26T19:29:44.634Z,0.97
2023-03-26T19:32:19.344Z,1.13
2023-03-26T19:34:48.515Z,1.13
2023-03-26T19:37:22.759Z,1.73
2023-03-26T19:39:52.401Z,0.90
2023-03-26T19:42:26.511Z,0.90
2023-03-26T19:44:57.527Z,0.80
2023-03-26T19:47:43.506Z,0.70
2023-03-26T19:50:25.490Z,0.60
2023-03-26T19:53:16.694Z,0.73
2023-03-26T19:55:55.581Z,0.47
2023-03-26T19:58:23.610Z,0.82
2023-03-26T20:00:52.734Z,1.00
2023-03-26T20:03:25.465Z,0.85
2023-03-26T20:05:53.548Z,0.70
2023-03-26T20:08:26.801Z,0.70
2023-03-26T20:10:56.514Z,0.82
2023-03-26T20:13:24.511Z,1.10
2023-03-26T20:16:05.924Z,0.70
2023-03-26T20:18:34.771Z,0.55
2023-03-26T20:21:02.603Z,0.80
2023-03-26T20:23:30.369Z,0.90
2023-03-26T20:25:58.531Z,1.42
2023-03-26T20:28:26.685Z,1.30
2023-03-26T20:30:56.116Z,1.02
2023-03-26T20:33:26.603Z,1.00
2023-03-26T20:35:55.300Z,1.35
2023-03-26T20:38:36.724Z,0.90
2023-03-26T20:41:07.277Z,1.10
2023-03-26T20:43:35.112Z,1.15
2023-03-26T20:46:04.322Z,1.00
2023-03-26T20:48:32.166Z,1.00
2023-03-26T20:51:01.421Z,1.58
2023-03-26T20:53:30.490Z,1.10
2023-03-26T20:55:58.399Z,1.05
2023-03-26T20:58:31.427Z,1.63
2023-03-26T21:01:02.074Z,1.02
2023-03-26T21:03:31.703Z,1.05
2023-03-26T21:06:01.769Z,0.90
2023-03-26T21:08:35.256Z,0.68
2023-03-26T21:11:04.834Z,0.80
2023-03-26T21:13:37.796Z,0.90
2023-03-26T21:16:06.473Z,0.95
2023-03-26T21:18:36.845Z,0.70
2023-03-26T21:21:21.898Z,0.75
2023-03-26T21:23:59.373Z,0.90
2023-03-26T21:26:33.607Z,0.73
2023-03-26T21:29:09.689Z,0.80
2023-03-26T21:31:38.918Z,0.88
2023-03-26T21:34:09.618Z,0.70
2023-03-26T21:36:38.102Z,0.40
2023-03-26T21:39:06.704Z,0.80
2023-03-26T21:41:43.594Z,0.70
2023-03-26T21:44:11.788Z,0.70
2023-03-26T21:46:42.668Z,1.05
2023-03-26T21:49:12.517Z,0.90
2023-03-26T21:51:40.907Z,0.73
2023-03-26T21:54:18.582Z,0.90
2023-03-26T21:56:51.148Z,0.73
2023-03-26T21:59:27.266Z,0.90
2023-03-26T22:02:02.638Z,0.70
2023-03-26T22:04:39.139Z,0.60
2023-03-26T22:07:13.733Z,0.90
2023-03-26T22:09:43.261Z,0.85
2023-03-26T22:12:11.421Z,1.00
2023-03-26T22:14:39.413Z,0.70
2023-03-26T22:17:07.532Z,0.45
2023-03-26T22:19:36.860Z,0.60
2023-03-26T22:22:05.351Z,0.73
2023-03-26T22:24:34.321Z,0.63
2023-03-26T22:27:02.230Z,0.70
2023-03-26T22:29:30.135Z,0.80
2023-03-26T22:31:57.954Z,0.75
2023-03-26T22:34:25.885Z,0.70
2023-03-26T22:36:55.062Z,0.40
2023-03-26T22:39:22.904Z,0.40
2023-03-26T22:41:50.820Z,0.65
2023-03-26T22:44:20.489Z,0.63
2023-03-26T22:46:51.105Z,1.02
2023-03-26T22:49:19.703Z,0.60
2023-03-26T22:51:47.820Z,0.60
2023-03-26T22:54:17.151Z,0.50
2023-03-26T22:56:45.700Z,0.90
2023-03-26T22:59:14.188Z,0.43
2023-03-26T23:01:41.971Z,0.65
2023-03-26T23:04:09.891Z,0.40
2023-03-26T23:06:37.803Z,0.50
2023-03-26T23:09:07.064Z,0.60
2023-03-26T23:11:36.290Z,0.63
2023-03-26T23:14:04.151Z,0.43
2023-03-26T23:16:32.758Z,1.53
2023-03-26T23:19:00.757Z,0.70
2023-03-26T23:21:28.895Z,0.90
2023-03-26T23:23:56.691Z,0.60
2023-03-26T23:26:24.606Z,0.57
2023-03-26T23:28:53.980Z,0.60
2023-03-26T23:31:21.882Z,0.73
2023-03-26T23:33:50.320Z,0.50
2023-03-26T23:36:20.348Z,0.70
2023-03-26T23:38:49.361Z,0.60
2023-03-26T23:41:18.752Z,0.60
2023-03-26T23:43:54.417Z,0.75
2023-03-26T23:46:25.937Z,0.50
2023-03-26T23:48:55.105Z,0.75
2023-03-26T23:51:24.133Z,0.50
2023-03-26T23:53:52.615Z,0.50
2023-03-26T23:56:21.037Z,0.50
2023-03-26T23:58:49.688Z,0.70
